createdAt,value
2023-02-23T00:00:04.962Z,94752.00
2023-02-23T00:00:14.965Z,94750.00
2023-02-23T00:00:24.923Z,94752.00
2023-02-23T00:00:34.948Z,94752.00
2023-02-23T00:00:44.939Z,94752.00
2023-02-23T00:00:54.935Z,94750.00
2023-02-23T00:01:04.978Z,94752.00
2023-02-23T00:01:14.960Z,94752.00
2023-02-23T00:01:24.957Z,94750.00
2023-02-23T00:01:34.990Z,94748.00
2023-02-23T00:01:44.980Z,94748.00
2023-02-23T00:01:55.014Z,94750.00
2023-02-23T00:02:05.018Z,94752.00
2023-02-23T00:02:15.043Z,94752.00
2023-02-23T00:02:25.036Z,94750.00
2023-02-23T00:02:35.065Z,94750.00
2023-02-23T00:02:45.125Z,94750.00
2023-02-23T00:02:55.187Z,94752.00
2023-02-23T00:03:05.182Z,94752.00
2023-02-23T00:03:15.088Z,94752.00
2023-02-23T00:03:25.099Z,94748.00
2023-02-23T00:03:35.153Z,94752.00
2023-02-23T00:03:45.143Z,94750.00
2023-02-23T00:03:55.103Z,94752.00
2023-02-23T00:04:05.122Z,94750.00
2023-02-23T00:04:15.097Z,94748.00
2023-02-23T00:04:25.118Z,94752.00
2023-02-23T00:04:35.126Z,94752.00
2023-02-23T00:04:45.132Z,94752.00
2023-02-23T00:04:55.188Z,94752.00
2023-02-23T00:05:05.144Z,94754.00
2023-02-23T00:05:15.155Z,94752.00
2023-02-23T00:05:25.161Z,94754.00
2023-02-23T00:05:35.203Z,94754.00
2023-02-23T00:05:45.204Z,94752.00
2023-02-23T00:05:55.180Z,94754.00
2023-02-23T00:06:05.223Z,94752.00
2023-02-23T00:06:15.218Z,94752.00
2023-02-23T00:06:25.259Z,94752.00
2023-02-23T00:06:35.278Z,94752.00
2023-02-23T00:06:45.341Z,94752.00
2023-02-23T00:06:55.377Z,94754.00
2023-02-23T00:07:05.268Z,94756.00
2023-02-23T00:07:15.245Z,94754.00
2023-02-23T00:07:25.268Z,94756.00
2023-02-23T00:07:35.304Z,94754.00
2023-02-23T00:07:45.310Z,94752.00
2023-02-23T00:07:55.282Z,94754.00
2023-02-23T00:08:05.319Z,94756.00
2023-02-23T00:08:15.320Z,94758.00
2023-02-23T00:08:25.330Z,94754.00
2023-02-23T00:08:35.339Z,94756.00
2023-02-23T00:08:45.339Z,94756.00
2023-02-23T00:08:55.321Z,94756.00
2023-02-23T00:09:05.353Z,94756.00
2023-02-23T00:09:15.373Z,94756.00
2023-02-23T00:09:25.357Z,94758.00
2023-02-23T00:09:35.665Z,94756.00
2023-02-23T00:09:45.376Z,94758.00
2023-02-23T00:09:55.434Z,94760.00
2023-02-23T00:10:05.384Z,94756.00
2023-02-23T00:10:15.400Z,94758.00
2023-02-23T00:10:25.393Z,94756.00
2023-02-23T00:10:35.377Z,94758.00
2023-02-23T00:10:45.374Z,94758.00
2023-02-23T00:10:55.381Z,94758.00
2023-02-23T00:11:05.380Z,94760.00
2023-02-23T00:11:15.376Z,94758.00
2023-02-23T00:11:25.387Z,94758.00
2023-02-23T00:11:35.383Z,94758.00
2023-02-23T00:11:45.373Z,94760.00
2023-02-23T00:11:55.397Z,94758.00
2023-02-23T00:12:05.374Z,94760.00
2023-02-23T00:12:15.374Z,94756.00
2023-02-23T00:12:25.392Z,94758.00
2023-02-23T00:12:35.378Z,94758.00
2023-02-23T00:12:45.385Z,94756.00
2023-02-23T00:12:55.382Z,94758.00
2023-02-23T00:13:05.366Z,94758.00
2023-02-23T00:13:15.397Z,94758.00
2023-02-23T00:13:25.373Z,94758.00
2023-02-23T00:13:35.380Z,94758.00
2023-02-23T00:13:45.381Z,94758.00
2023-02-23T00:13:55.374Z,94760.00
2023-02-23T00:14:05.370Z,94760.00
2023-02-23T00:14:15.393Z,94760.00
2023-02-23T00:14:25.376Z,94760.00
2023-02-23T00:14:35.336Z,94760.00
2023-02-23T00:14:45.345Z,94762.00
2023-02-23T00:14:55.362Z,94762.00
2023-02-23T00:15:05.443Z,94760.00
2023-02-23T00:15:15.414Z,94760.00
2023-02-23T00:15:25.395Z,94764.00
2023-02-23T00:15:35.413Z,94758.00
2023-02-23T00:15:45.418Z,94758.00
2023-02-23T00:15:55.435Z,94760.00
2023-02-23T00:16:05.464Z,94760.00
2023-02-23T00:16:15.424Z,94760.00
2023-02-23T00:16:25.496Z,94758.00
2023-02-23T00:16:35.494Z,94762.00
2023-02-23T00:16:45.608Z,94758.00
2023-02-23T00:16:55.459Z,94764.00
2023-02-23T00:17:05.480Z,94764.00
2023-02-23T00:17:15.492Z,94762.00
2023-02-23T00:17:25.470Z,94762.00
2023-02-23T00:17:35.521Z,94760.00
2023-02-23T00:17:45.539Z,94762.00
2023-02-23T00:17:55.514Z,94762.00
2023-02-23T00:18:05.544Z,94762.00
2023-02-23T00:18:15.553Z,94762.00
2023-02-23T00:18:25.531Z,94762.00
2023-02-23T00:18:35.554Z,94762.00
2023-02-23T00:18:45.636Z,94762.00
2023-02-23T00:18:55.718Z,94760.00
2023-02-23T00:19:05.606Z,94762.00
2023-02-23T00:19:15.646Z,94760.00
2023-02-23T00:19:25.589Z,94764.00
2023-02-23T00:19:35.615Z,94762.00
2023-02-23T00:19:45.621Z,94764.00
2023-02-23T00:19:55.622Z,94764.00
2023-02-23T00:20:05.676Z,94764.00
2023-02-23T00:20:15.660Z,94764.00
2023-02-23T00:20:25.635Z,94764.00
2023-02-23T00:20:35.671Z,94764.00
2023-02-23T00:20:45.667Z,94764.00
2023-02-23T00:20:55.665Z,94766.00
2023-02-23T00:21:05.691Z,94766.00
2023-02-23T00:21:15.834Z,94764.00
2023-02-23T00:21:25.666Z,94764.00
2023-02-23T00:21:35.699Z,94766.00
2023-02-23T00:21:45.717Z,94766.00
2023-02-23T00:21:55.671Z,94768.00
2023-02-23T00:22:05.671Z,94770.00
2023-02-23T00:22:15.675Z,94768.00
2023-02-23T00:22:25.673Z,94768.00
2023-02-23T00:22:35.681Z,94770.00
2023-02-23T00:22:45.674Z,94768.00
2023-02-23T00:22:55.655Z,94770.00
2023-02-23T00:23:05.697Z,94768.00
2023-02-23T00:23:15.669Z,94772.00
2023-02-23T00:23:25.679Z,94768.00
2023-02-23T00:23:35.670Z,94768.00
2023-02-23T00:23:45.671Z,94768.00
2023-02-23T00:23:55.667Z,94770.00
2023-02-23T00:24:05.687Z,94768.00
2023-02-23T00:24:15.678Z,94768.00
2023-02-23T00:24:25.672Z,94772.00
2023-02-23T00:24:35.689Z,94770.00
2023-02-23T00:24:45.667Z,94768.00
2023-02-23T00:24:55.683Z,94770.00
2023-02-23T00:25:05.688Z,94770.00
2023-02-23T00:25:15.721Z,94770.00
2023-02-23T00:25:25.709Z,94772.00
2023-02-23T00:25:35.692Z,94770.00
2023-02-23T00:25:45.700Z,94772.00
2023-02-23T00:25:55.694Z,94770.00
2023-02-23T00:26:05.680Z,94768.00
2023-02-23T00:26:15.692Z,94770.00
2023-02-23T00:26:25.675Z,94772.00
2023-02-23T00:26:35.683Z,94772.00
2023-02-23T00:26:45.657Z,94770.00
2023-02-23T00:26:55.661Z,94770.00
2023-02-23T00:27:05.696Z,94770.00
2023-02-23T00:27:15.757Z,94772.00
2023-02-23T00:27:25.700Z,94770.00
2023-02-23T00:27:35.737Z,94772.00
2023-02-23T00:27:45.729Z,94770.00
2023-02-23T00:27:55.724Z,94774.00
2023-02-23T00:28:05.735Z,94774.00
2023-02-23T00:28:15.740Z,94772.00
2023-02-23T00:28:25.730Z,94772.00
2023-02-23T00:28:35.760Z,94774.00
2023-02-23T00:28:45.779Z,94774.00
2023-02-23T00:28:55.754Z,94772.00
2023-02-23T00:29:05.803Z,94772.00
2023-02-23T00:29:15.797Z,94772.00
2023-02-23T00:29:25.794Z,94770.00
2023-02-23T00:29:35.824Z,94772.00
2023-02-23T00:29:45.821Z,94774.00
2023-02-23T00:29:55.819Z,94774.00
2023-02-23T00:30:05.824Z,94774.00
2023-02-23T00:30:15.895Z,94772.00
2023-02-23T00:30:25.848Z,94772.00
2023-02-23T00:30:35.887Z,94774.00
2023-02-23T00:30:45.918Z,94772.00
2023-02-23T00:30:55.880Z,94774.00
2023-02-23T00:31:05.902Z,94772.00
2023-02-23T00:31:15.999Z,94774.00
2023-02-23T00:31:25.978Z,94774.00
2023-02-23T00:31:36.008Z,94774.00
2023-02-23T00:31:45.984Z,94772.00
2023-02-23T00:31:56.034Z,94774.00
2023-02-23T00:32:06.072Z,94774.00
2023-02-23T00:32:16.027Z,94774.00
2023-02-23T00:32:25.996Z,94772.00
2023-02-23T00:32:36.072Z,94774.00
2023-02-23T00:32:46.031Z,94774.00
2023-02-23T00:32:55.977Z,94772.00
2023-02-23T00:33:06.001Z,94774.00
2023-02-23T00:33:15.989Z,94772.00
2023-02-23T00:33:25.983Z,94772.00
2023-02-23T00:33:36.010Z,94770.00
2023-02-23T00:33:46.018Z,94772.00
2023-02-23T00:33:56.021Z,94772.00
2023-02-23T00:34:06.039Z,94774.00
2023-02-23T00:34:16.045Z,94768.00
2023-02-23T00:34:26.039Z,94772.00
2023-02-23T00:34:36.088Z,94772.00
2023-02-23T00:34:46.080Z,94770.00
2023-02-23T00:34:56.076Z,94772.00
2023-02-23T00:35:06.101Z,94772.00
2023-02-23T00:35:16.131Z,94774.00
2023-02-23T00:35:26.102Z,94772.00
2023-02-23T00:35:36.116Z,94772.00
2023-02-23T00:35:46.108Z,94772.00
2023-02-23T00:35:56.128Z,94772.00
2023-02-23T00:36:06.123Z,94772.00
2023-02-23T00:36:16.127Z,94772.00
2023-02-23T00:36:26.138Z,94775.00
2023-02-23T00:36:36.177Z,94774.00
2023-02-23T00:36:46.172Z,94772.00
2023-02-23T00:36:56.175Z,94772.00
2023-02-23T00:37:06.207Z,94774.00
2023-02-23T00:37:16.183Z,94775.00
2023-02-23T00:37:26.202Z,94774.00
2023-02-23T00:37:36.217Z,94774.00
2023-02-23T00:37:46.212Z,94774.00
2023-02-23T00:37:56.212Z,94777.00
2023-02-23T00:38:06.242Z,94777.00
2023-02-23T00:38:16.237Z,94775.00
2023-02-23T00:38:26.250Z,94775.00
2023-02-23T00:38:36.253Z,94777.00
2023-02-23T00:38:46.270Z,94777.00
2023-02-23T00:38:56.269Z,94775.00
2023-02-23T00:39:06.293Z,94779.00
2023-02-23T00:39:16.291Z,94777.00
2023-02-23T00:39:26.301Z,94779.00
2023-02-23T00:39:36.338Z,94777.00
2023-02-23T00:39:46.320Z,94779.00
2023-02-23T00:39:56.336Z,94781.00
2023-02-23T00:40:06.347Z,94779.00
2023-02-23T00:40:36.390Z,94781.00
2023-02-23T00:40:46.387Z,94779.00
2023-02-23T00:40:56.602Z,94783.00
2023-02-23T00:41:06.605Z,94783.00
2023-02-23T00:41:16.837Z,94781.00
2023-02-23T00:41:26.729Z,94781.00
2023-02-23T00:41:36.721Z,94781.00
2023-02-23T00:41:46.723Z,94781.00
2023-02-23T00:41:56.730Z,94783.00
2023-02-23T00:42:06.743Z,94781.00
2023-02-23T00:42:16.745Z,94781.00
2023-02-23T00:42:26.745Z,94781.00
2023-02-23T00:42:36.724Z,94781.00
2023-02-23T00:42:46.733Z,94779.00
2023-02-23T00:42:56.751Z,94781.00
2023-02-23T00:43:06.730Z,94779.00
2023-02-23T00:43:16.751Z,94783.00
2023-02-23T00:43:26.734Z,94781.00
2023-02-23T00:43:36.724Z,94781.00
2023-02-23T00:43:46.764Z,94781.00
2023-02-23T00:43:56.732Z,94779.00
2023-02-23T00:44:06.759Z,94779.00
2023-02-23T00:44:16.732Z,94779.00
2023-02-23T00:44:26.728Z,94779.00
2023-02-23T00:44:36.731Z,94779.00
2023-02-23T00:44:46.734Z,94781.00
2023-02-23T00:44:56.728Z,94779.00
2023-02-23T00:45:06.762Z,94781.00
2023-02-23T00:45:16.736Z,94781.00
2023-02-23T00:45:26.723Z,94779.00
2023-02-23T00:45:36.776Z,94779.00
2023-02-23T00:45:46.787Z,94781.00
2023-02-23T00:45:56.746Z,94781.00
2023-02-23T00:46:06.825Z,94781.00
2023-02-23T00:46:16.758Z,94781.00
2023-02-23T00:46:26.725Z,94781.00
2023-02-23T00:46:36.725Z,94779.00
2023-02-23T00:46:46.715Z,94781.00
2023-02-23T00:46:56.734Z,94781.00
2023-02-23T00:47:06.700Z,94781.00
2023-02-23T00:47:16.707Z,94783.00
2023-02-23T00:47:26.759Z,94781.00
2023-02-23T00:47:36.725Z,94779.00
2023-02-23T00:47:46.721Z,94783.00
2023-02-23T00:47:56.738Z,94781.00
2023-02-23T00:48:06.774Z,94781.00
2023-02-23T00:48:16.753Z,94781.00
2023-02-23T00:48:26.811Z,94779.00
2023-02-23T00:48:36.801Z,94779.00
2023-02-23T00:48:46.792Z,94779.00
2023-02-23T00:48:56.808Z,94781.00
2023-02-23T00:49:06.806Z,94781.00
2023-02-23T00:49:16.810Z,94785.00
2023-02-23T00:49:26.840Z,94779.00
2023-02-23T00:49:36.824Z,94781.00
2023-02-23T00:49:46.853Z,94783.00
2023-02-23T00:49:56.839Z,94783.00
2023-02-23T00:50:06.839Z,94783.00
2023-02-23T00:50:16.858Z,94779.00
2023-02-23T00:50:26.879Z,94781.00
2023-02-23T00:50:36.929Z,94785.00
2023-02-23T00:50:46.895Z,94783.00
2023-02-23T00:50:56.895Z,94783.00
2023-02-23T00:51:06.894Z,94783.00
2023-02-23T00:51:17.087Z,94779.00
2023-02-23T00:51:26.937Z,94781.00
2023-02-23T00:51:36.924Z,94781.00
2023-02-23T00:51:46.943Z,94781.00
2023-02-23T00:51:56.919Z,94781.00
2023-02-23T00:52:06.928Z,94781.00
2023-02-23T00:52:16.938Z,94783.00
2023-02-23T00:52:26.933Z,94781.00
2023-02-23T00:52:36.940Z,94781.00
2023-02-23T00:52:46.943Z,94781.00
2023-02-23T00:52:56.931Z,94781.00
2023-02-23T00:53:06.951Z,94779.00
2023-02-23T00:53:16.921Z,94781.00
2023-02-23T00:53:26.950Z,94777.00
2023-02-23T00:53:36.919Z,94777.00
2023-02-23T00:53:46.945Z,94777.00
2023-02-23T00:53:56.956Z,94775.00
2023-02-23T00:54:06.929Z,94777.00
2023-02-23T00:54:16.942Z,94775.00
2023-02-23T00:54:26.925Z,94775.00
2023-02-23T00:54:36.946Z,94777.00
2023-02-23T00:54:46.955Z,94775.00
2023-02-23T00:54:56.923Z,94775.00
2023-02-23T00:55:06.957Z,94775.00
2023-02-23T00:55:16.931Z,94775.00
2023-02-23T00:55:26.921Z,94774.00
2023-02-23T00:55:36.914Z,94774.00
2023-02-23T00:55:47.054Z,94775.00
2023-02-23T00:55:56.928Z,94774.00
2023-02-23T00:56:06.935Z,94774.00
2023-02-23T00:56:16.915Z,94772.00
2023-02-23T00:56:26.908Z,94775.00
2023-02-23T00:56:36.906Z,94774.00
2023-02-23T00:56:46.929Z,94775.00
2023-02-23T00:56:56.940Z,94775.00
2023-02-23T00:57:06.937Z,94777.00
2023-02-23T00:57:16.920Z,94777.00
2023-02-23T00:57:26.977Z,94777.00
2023-02-23T00:57:36.947Z,94775.00
2023-02-23T00:57:47.019Z,94775.00
2023-02-23T00:57:57.000Z,94775.00
2023-02-23T00:58:06.998Z,94775.00
2023-02-23T00:58:16.997Z,94775.00
2023-02-23T00:58:26.999Z,94775.00
2023-02-23T00:58:36.997Z,94779.00
2023-02-23T00:58:47.015Z,94777.00
2023-02-23T00:58:57.039Z,94775.00
2023-02-23T00:59:07.019Z,94775.00
2023-02-23T00:59:17.049Z,94777.00
2023-02-23T00:59:27.070Z,94775.00
2023-02-23T00:59:37.092Z,94777.00
2023-02-23T00:59:47.061Z,94777.00
2023-02-23T00:59:57.091Z,94777.00
2023-02-23T01:00:07.095Z,94775.00
2023-02-23T01:00:17.092Z,94777.00
2023-02-23T01:00:27.118Z,94777.00
2023-02-23T01:00:37.107Z,94777.00
2023-02-23T01:00:47.147Z,94775.00
2023-02-23T01:00:57.175Z,94777.00
2023-02-23T01:01:07.146Z,94775.00
2023-02-23T01:01:17.681Z,94777.00
2023-02-23T01:01:27.173Z,94775.00
2023-02-23T01:01:37.161Z,94777.00
2023-02-23T01:01:47.227Z,94775.00
2023-02-23T01:01:57.130Z,94775.00
2023-02-23T01:02:07.173Z,94777.00
2023-02-23T01:02:17.180Z,94775.00
2023-02-23T01:02:27.197Z,94777.00
2023-02-23T01:02:37.187Z,94777.00
2023-02-23T01:02:47.142Z,94777.00
2023-02-23T01:02:57.141Z,94775.00
2023-02-23T01:03:07.142Z,94777.00
2023-02-23T01:03:17.130Z,94774.00
2023-02-23T01:03:27.131Z,94777.00
2023-02-23T01:03:37.133Z,94777.00
2023-02-23T01:03:47.114Z,94775.00
2023-02-23T01:03:57.117Z,94772.00
2023-02-23T01:04:07.135Z,94777.00
2023-02-23T01:04:17.125Z,94774.00
2023-02-23T01:04:27.149Z,94774.00
2023-02-23T01:04:37.120Z,94774.00
2023-02-23T01:04:47.132Z,94772.00
2023-02-23T01:04:57.140Z,94772.00
2023-02-23T01:05:07.131Z,94772.00
2023-02-23T01:05:17.130Z,94774.00
2023-02-23T01:05:27.116Z,94770.00
2023-02-23T01:05:37.106Z,94770.00
2023-02-23T01:05:47.116Z,94770.00
2023-02-23T01:05:57.162Z,94774.00
2023-02-23T01:06:07.111Z,94770.00
2023-02-23T01:06:17.115Z,94772.00
2023-02-23T01:06:27.113Z,94770.00
2023-02-23T01:06:37.105Z,94770.00
2023-02-23T01:06:47.111Z,94770.00
2023-02-23T01:06:57.115Z,94768.00
2023-02-23T01:07:07.142Z,94772.00
2023-02-23T01:07:17.129Z,94772.00
2023-02-23T01:07:27.114Z,94774.00
2023-02-23T01:07:37.105Z,94774.00
2023-02-23T01:07:47.102Z,94774.00
2023-02-23T01:07:57.117Z,94772.00
2023-02-23T01:08:07.112Z,94772.00
2023-02-23T01:08:17.110Z,94774.00
2023-02-23T01:08:27.094Z,94774.00
2023-02-23T01:08:37.136Z,94774.00
2023-02-23T01:08:47.102Z,94772.00
2023-02-23T01:08:57.111Z,94772.00
2023-02-23T01:09:07.112Z,94774.00
2023-02-23T01:09:17.101Z,94772.00
2023-02-23T01:09:27.101Z,94772.00
2023-02-23T01:09:37.102Z,94774.00
2023-02-23T01:09:47.106Z,94772.00
2023-02-23T01:09:57.133Z,94774.00
2023-02-23T01:10:07.119Z,94772.00
2023-02-23T01:10:17.099Z,94772.00
2023-02-23T01:10:27.098Z,94772.00
2023-02-23T01:10:37.101Z,94772.00
2023-02-23T01:10:47.090Z,94772.00
2023-02-23T01:10:57.118Z,94770.00
2023-02-23T01:11:07.123Z,94770.00
2023-02-23T01:11:17.385Z,94770.00
2023-02-23T01:11:27.096Z,94770.00
2023-02-23T01:11:37.077Z,94770.00
2023-02-23T01:11:47.177Z,94772.00
2023-02-23T01:11:57.161Z,94770.00
2023-02-23T01:12:07.084Z,94772.00
2023-02-23T01:12:17.073Z,94768.00
2023-02-23T01:12:27.084Z,94772.00
2023-02-23T01:12:37.081Z,94772.00
2023-02-23T01:12:47.091Z,94772.00
2023-02-23T01:12:57.089Z,94770.00
2023-02-23T01:13:07.093Z,94772.00
2023-02-23T01:13:17.093Z,94774.00
2023-02-23T01:13:27.083Z,94768.00
2023-02-23T01:13:37.090Z,94770.00
2023-02-23T01:13:47.110Z,94770.00
2023-02-23T01:13:57.095Z,94772.00
2023-02-23T01:14:07.079Z,94768.00
2023-02-23T01:14:17.090Z,94768.00
2023-02-23T01:14:27.090Z,94768.00
2023-02-23T01:14:37.088Z,94770.00
2023-02-23T01:14:47.092Z,94768.00
2023-02-23T01:14:57.089Z,94768.00
2023-02-23T01:15:07.103Z,94768.00
2023-02-23T01:15:17.077Z,94772.00
2023-02-23T01:15:27.120Z,94772.00
2023-02-23T01:15:37.123Z,94770.00
2023-02-23T01:15:47.087Z,94770.00
2023-02-23T01:15:57.119Z,94770.00
2023-02-23T01:16:07.061Z,94770.00
2023-02-23T01:16:17.129Z,94772.00
2023-02-23T01:16:27.063Z,94772.00
2023-02-23T01:16:37.058Z,94772.00
2023-02-23T01:16:47.065Z,94772.00
2023-02-23T01:16:57.065Z,94772.00
2023-02-23T01:17:07.084Z,94774.00
2023-02-23T01:17:17.067Z,94774.00
2023-02-23T01:17:27.072Z,94774.00
2023-02-23T01:17:37.075Z,94770.00
2023-02-23T01:17:47.077Z,94772.00
2023-02-23T01:17:57.070Z,94772.00
2023-02-23T01:18:07.068Z,94772.00
2023-02-23T01:18:17.063Z,94772.00
2023-02-23T01:18:27.056Z,94772.00
2023-02-23T01:18:37.085Z,94770.00
2023-02-23T01:18:47.105Z,94770.00
2023-02-23T01:18:57.090Z,94774.00
2023-02-23T01:19:07.150Z,94774.00
2023-02-23T01:19:17.117Z,94774.00
2023-02-23T01:19:27.144Z,94774.00
2023-02-23T01:19:37.135Z,94775.00
2023-02-23T01:19:47.138Z,94772.00
2023-02-23T01:19:57.131Z,94775.00
2023-02-23T01:20:07.180Z,94772.00
2023-02-23T01:20:17.151Z,94775.00
2023-02-23T01:20:27.541Z,94774.00
2023-02-23T01:20:37.269Z,94775.00
2023-02-23T01:20:47.279Z,94775.00
2023-02-23T01:20:57.268Z,94775.00
2023-02-23T01:21:07.255Z,94775.00
2023-02-23T01:21:17.629Z,94775.00
2023-02-23T01:21:27.271Z,94775.00
2023-02-23T01:21:37.252Z,94777.00
2023-02-23T01:21:47.259Z,94775.00
2023-02-23T01:21:57.256Z,94775.00
2023-02-23T01:22:07.252Z,94774.00
2023-02-23T01:22:17.287Z,94775.00
2023-02-23T01:22:27.243Z,94774.00
2023-02-23T01:22:37.272Z,94775.00
2023-02-23T01:22:47.289Z,94775.00
2023-02-23T01:22:57.243Z,94775.00
2023-02-23T01:23:07.256Z,94777.00
2023-02-23T01:23:17.247Z,94775.00
2023-02-23T01:23:27.245Z,94777.00
2023-02-23T01:23:37.240Z,94775.00
2023-02-23T01:23:47.238Z,94781.00
2023-02-23T01:23:57.247Z,94777.00
2023-02-23T01:24:07.243Z,94779.00
2023-02-23T01:24:17.232Z,94777.00
2023-02-23T01:24:27.248Z,94775.00
2023-02-23T01:24:37.243Z,94777.00
2023-02-23T01:24:47.251Z,94777.00
2023-02-23T01:24:57.233Z,94777.00
2023-02-23T01:25:07.243Z,94779.00
2023-02-23T01:25:17.258Z,94779.00
2023-02-23T01:25:27.245Z,94779.00
2023-02-23T01:25:37.242Z,94779.00
2023-02-23T01:25:47.230Z,94779.00
2023-02-23T01:25:57.242Z,94777.00
2023-02-23T01:26:07.252Z,94779.00
2023-02-23T01:26:17.255Z,94779.00
2023-02-23T01:26:27.296Z,94777.00
2023-02-23T01:26:37.228Z,94779.00
2023-02-23T01:26:47.268Z,94779.00
2023-02-23T01:26:57.237Z,94779.00
2023-02-23T01:27:07.271Z,94777.00
2023-02-23T01:27:17.252Z,94779.00
2023-02-23T01:27:27.246Z,94779.00
2023-02-23T01:27:37.282Z,94779.00
2023-02-23T01:27:47.259Z,94779.00
2023-02-23T01:27:57.289Z,94777.00
2023-02-23T01:28:07.305Z,94777.00
2023-02-23T01:28:17.332Z,94779.00
2023-02-23T01:28:27.341Z,94779.00
2023-02-23T01:28:37.331Z,94777.00
2023-02-23T01:28:47.324Z,94779.00
2023-02-23T01:28:57.342Z,94779.00
2023-02-23T01:29:07.346Z,94777.00
2023-02-23T01:29:17.364Z,94779.00
2023-02-23T01:29:27.336Z,94777.00
2023-02-23T01:29:37.396Z,94777.00
2023-02-23T01:29:47.400Z,94777.00
2023-02-23T01:29:57.394Z,94775.00
2023-02-23T01:30:07.409Z,94777.00
2023-02-23T01:30:17.421Z,94775.00
2023-02-23T01:30:27.428Z,94777.00
2023-02-23T01:30:37.531Z,94775.00
2023-02-23T01:30:47.610Z,94775.00
2023-02-23T01:30:57.535Z,94777.00
2023-02-23T01:31:07.547Z,94774.00
2023-02-23T01:31:17.920Z,94775.00
2023-02-23T01:31:27.623Z,94775.00
2023-02-23T01:31:37.595Z,94775.00
2023-02-23T01:31:47.641Z,94779.00
2023-02-23T01:31:57.517Z,94779.00
2023-02-23T01:32:07.533Z,94774.00
2023-02-23T01:32:17.547Z,94777.00
2023-02-23T01:32:27.467Z,94777.00
2023-02-23T01:32:37.484Z,94777.00
2023-02-23T01:32:47.454Z,94777.00
2023-02-23T01:32:57.441Z,94779.00
2023-02-23T01:33:07.475Z,94777.00
2023-02-23T01:33:17.455Z,94774.00
2023-02-23T01:33:27.472Z,94779.00
2023-02-23T01:33:37.480Z,94775.00
2023-02-23T01:33:47.475Z,94779.00
2023-02-23T01:33:57.493Z,94774.00
2023-02-23T01:34:07.513Z,94775.00
2023-02-23T01:34:17.497Z,94774.00
2023-02-23T01:34:27.496Z,94775.00
2023-02-23T01:34:37.538Z,94779.00
2023-02-23T01:34:47.506Z,94772.00
2023-02-23T01:34:57.538Z,94777.00
2023-02-23T01:35:07.560Z,94777.00
2023-02-23T01:35:17.569Z,94775.00
2023-02-23T01:35:27.585Z,94779.00
2023-02-23T01:35:37.577Z,94777.00
2023-02-23T01:35:47.572Z,94777.00
2023-02-23T01:35:57.590Z,94775.00
2023-02-23T01:36:07.593Z,94777.00
2023-02-23T01:36:17.606Z,94777.00
2023-02-23T01:36:27.655Z,94775.00
2023-02-23T01:36:37.610Z,94777.00
2023-02-23T01:36:47.626Z,94777.00
2023-02-23T01:36:57.630Z,94777.00
2023-02-23T01:37:07.666Z,94777.00
2023-02-23T01:37:17.651Z,94774.00
2023-02-23T01:37:27.662Z,94779.00
2023-02-23T01:37:37.685Z,94775.00
2023-02-23T01:37:47.685Z,94775.00
2023-02-23T01:37:57.686Z,94775.00
2023-02-23T01:38:07.727Z,94777.00
2023-02-23T01:38:17.695Z,94774.00
2023-02-23T01:38:27.728Z,94775.00
2023-02-23T01:38:37.750Z,94775.00
2023-02-23T01:38:47.713Z,94777.00
2023-02-23T01:38:57.745Z,94774.00
2023-02-23T01:39:07.816Z,94775.00
2023-02-23T01:39:17.817Z,94774.00
2023-02-23T01:39:27.771Z,94775.00
2023-02-23T01:39:37.782Z,94774.00
2023-02-23T01:39:47.782Z,94774.00
2023-02-23T01:39:57.770Z,94775.00
2023-02-23T01:40:07.817Z,94775.00
2023-02-23T01:40:17.814Z,94775.00
2023-02-23T01:40:27.817Z,94774.00
2023-02-23T01:40:37.848Z,94774.00
2023-02-23T01:40:47.865Z,94775.00
2023-02-23T01:40:57.820Z,94774.00
2023-02-23T01:41:07.869Z,94775.00
2023-02-23T01:41:18.258Z,94774.00
2023-02-23T01:41:27.893Z,94775.00
2023-02-23T01:41:37.854Z,94772.00
2023-02-23T01:41:47.870Z,94774.00
2023-02-23T01:41:57.849Z,94775.00
2023-02-23T01:42:07.864Z,94774.00
2023-02-23T01:42:17.872Z,94774.00
2023-02-23T01:42:27.855Z,94774.00
2023-02-23T01:42:37.861Z,94774.00
2023-02-23T01:42:47.876Z,94772.00
2023-02-23T01:42:57.858Z,94772.00
2023-02-23T01:43:07.869Z,94777.00
2023-02-23T01:43:17.866Z,94774.00
2023-02-23T01:43:27.856Z,94774.00
2023-02-23T01:43:37.847Z,94777.00
2023-02-23T01:43:47.862Z,94772.00
2023-02-23T01:43:57.855Z,94774.00
2023-02-23T01:44:07.891Z,94775.00
2023-02-23T01:44:17.864Z,94774.00
2023-02-23T01:44:27.839Z,94775.00
2023-02-23T01:44:37.872Z,94775.00
2023-02-23T01:44:47.843Z,94774.00
2023-02-23T01:44:57.860Z,94772.00
2023-02-23T01:45:07.828Z,94774.00
2023-02-23T01:45:17.844Z,94774.00
2023-02-23T01:45:27.849Z,94777.00
2023-02-23T01:45:37.853Z,94777.00
2023-02-23T01:45:47.858Z,94774.00
2023-02-23T01:45:57.930Z,94775.00
2023-02-23T01:46:07.877Z,94775.00
2023-02-23T01:46:17.890Z,94775.00
2023-02-23T01:46:27.865Z,94775.00
2023-02-23T01:46:37.917Z,94775.00
2023-02-23T01:46:47.869Z,94775.00
2023-02-23T01:46:57.850Z,94775.00
2023-02-23T01:47:07.899Z,94777.00
2023-02-23T01:47:17.884Z,94777.00
2023-02-23T01:47:27.914Z,94774.00
2023-02-23T01:47:37.909Z,94775.00
2023-02-23T01:47:47.933Z,94775.00
2023-02-23T01:47:57.907Z,94774.00
2023-02-23T01:48:07.937Z,94774.00
2023-02-23T01:48:17.933Z,94775.00
2023-02-23T01:48:27.925Z,94775.00
2023-02-23T01:48:37.970Z,94774.00
2023-02-23T01:48:47.952Z,94774.00
2023-02-23T01:48:57.953Z,94775.00
2023-02-23T01:49:07.999Z,94775.00
2023-02-23T01:49:17.991Z,94772.00
2023-02-23T01:49:28.004Z,94772.00
2023-02-23T01:49:37.997Z,94774.00
2023-02-23T01:49:48.009Z,94774.00
2023-02-23T01:49:57.996Z,94774.00
2023-02-23T01:50:08.024Z,94774.00
2023-02-23T01:50:18.018Z,94772.00
2023-02-23T01:50:28.016Z,94777.00
2023-02-23T01:50:38.062Z,94775.00
2023-02-23T01:50:48.049Z,94774.00
2023-02-23T01:50:58.054Z,94775.00
2023-02-23T01:51:08.091Z,94775.00
2023-02-23T01:51:18.488Z,94772.00
2023-02-23T01:51:28.078Z,94775.00
2023-02-23T01:51:38.143Z,94774.00
2023-02-23T01:51:48.087Z,94775.00
2023-02-23T01:51:58.088Z,94774.00
2023-02-23T01:52:08.104Z,94774.00
2023-02-23T01:52:18.095Z,94774.00
2023-02-23T01:52:28.070Z,94772.00
2023-02-23T01:52:38.097Z,94775.00
2023-02-23T01:52:48.092Z,94775.00
2023-02-23T01:52:58.084Z,94775.00
2023-02-23T01:53:08.088Z,94772.00
2023-02-23T01:53:18.121Z,94775.00
2023-02-23T01:53:28.108Z,94775.00
2023-02-23T01:53:38.102Z,94772.00
2023-02-23T01:53:48.080Z,94774.00
2023-02-23T01:53:58.054Z,94774.00
2023-02-23T01:54:08.054Z,94774.00
2023-02-23T01:54:18.071Z,94770.00
2023-02-23T01:54:28.075Z,94772.00
2023-02-23T01:54:38.071Z,94774.00
2023-02-23T01:54:48.089Z,94774.00
2023-02-23T01:54:58.079Z,94774.00
2023-02-23T01:55:08.067Z,94772.00
2023-02-23T01:55:18.071Z,94774.00
2023-02-23T01:55:28.054Z,94774.00
2023-02-23T01:55:38.083Z,94772.00
2023-02-23T01:55:48.067Z,94774.00
2023-02-23T01:55:58.068Z,94774.00
2023-02-23T01:56:08.082Z,94772.00
2023-02-23T01:56:18.070Z,94772.00
2023-02-23T01:56:28.047Z,94770.00
2023-02-23T01:56:38.087Z,94772.00
2023-02-23T01:56:48.134Z,94772.00
2023-02-23T01:56:58.430Z,94772.00
2023-02-23T01:57:08.319Z,94774.00
2023-02-23T01:57:18.327Z,94774.00
2023-02-23T01:57:28.326Z,94770.00
2023-02-23T01:57:38.318Z,94772.00
2023-02-23T01:57:48.324Z,94770.00